Погода Кзыл-Аулна неделю

Ростовская область, Россия

24 - 30 мая
  • 24мая
    Сегодня
    +8°
    +23°
    Ясно и безоблачно
    ВремяПогодаТемператураВлажностьДавлениеВетер, м/сВероятность осадков
    00:00Ясно и безоблачно+15°C57 %760 мм4.3 м/с2 %
    03:00Облачно с прояснениями+13°C52 %760 мм6.7 м/с2 %
    06:00Ясно и безоблачно+13°C36 %762 мм6.3 м/с2 %
    09:00Ясно и безоблачно+17°C30 %763 мм6.8 м/с2 %
    12:00Ясно и безоблачно+21°C22 %764 мм7.1 м/с2 %
    15:00Ясно и безоблачно+22°C17 %763 мм7.0 м/с2 %
    18:00Ясно и безоблачно+20°C19 %764 мм6.7 м/с2 %
    21:00Ясно и безоблачно+14°C22 %765 мм5.3 м/с2 %
  • 25мая
    Суббота
    +11°
    +22°
    Ясно и безоблачно
    ВремяПогодаТемператураВлажностьДавлениеВетер, м/сВероятность осадков
    00:00Ясно и безоблачно+11°C28 %766 мм5.1 м/с2 %
    03:00Ясно и безоблачно+9°C34 %766 мм4.6 м/с2 %
    06:00Ясно и безоблачно+10°C39 %767 мм4.2 м/с2 %
    09:00Ясно и безоблачно+16°C31 %767 мм6.0 м/с2 %
    12:00Ясно и безоблачно+20°C25 %766 мм6.1 м/с2 %
    15:00Ясно и безоблачно+21°C19 %765 мм6.2 м/с2 %
    18:00Ясно и безоблачно+20°C21 %764 мм6.0 м/с2 %
    21:00Ясно и безоблачно+15°C30 %763 мм4.0 м/с2 %
  • 26мая
    Воскресенье
    +10°
    +25°
    Ясно и безоблачно
    ВремяПогодаТемператураВлажностьДавлениеВетер, м/сВероятность осадков
    00:00Пасмурно, сплошная облачность+13°C32 %763 мм4.2 м/с2 %
    03:00Пасмурно, сплошная облачность+11°C36 %763 мм3.7 м/с2 %
    06:00Облачно с прояснениями+12°C37 %763 мм4.0 м/с2 %
    09:00Практически безоблачно+18°C29 %762 мм5.3 м/с2 %
    12:00Практически безоблачно+22°C22 %761 мм5.6 м/с2 %
    15:00Ясно и безоблачно+24°C20 %760 мм5.9 м/с2 %
    18:00Ясно и безоблачно+23°C22 %759 мм5.2 м/с2 %
    21:00Ясно и безоблачно+17°C33 %760 мм3.6 м/с2 %
  • 27мая
    Понедельник
    +13°
    +28°
    Ясно и безоблачно
    ВремяПогодаТемператураВлажностьДавлениеВетер, м/сВероятность осадков
    00:00Ясно и безоблачно+14°C41 %760 мм2.9 м/с2 %
    03:00Ясно и безоблачно+11°C55 %760 мм2.2 м/с2 %
    06:00Ясно и безоблачно+13°C51 %761 мм3.1 м/с2 %
    09:00Ясно и безоблачно+22°C27 %761 мм3.9 м/с2 %
    12:00Ясно и безоблачно+26°C23 %761 мм5.3 м/с2 %
    15:00Ясно и безоблачно+28°C21 %760 мм5.1 м/с2 %
    18:00Ясно и безоблачно+26°C23 %760 мм4.4 м/с2 %
    21:00Ясно и безоблачно+18°C40 %761 мм2.2 м/с2 %
  • 28мая
    Вторник
    +14°
    +29°
    Небольшая облачность
    ВремяПогодаТемператураВлажностьДавлениеВетер, м/сВероятность осадков
    00:00Ясно и безоблачно+15°C47 %761 мм3.0 м/с2 %
    03:00Ясно и безоблачно+14°C57 %761 мм4.6 м/с2 %
    06:00Ясно и безоблачно+15°C61 %762 мм4.0 м/с2 %
    09:00Ясно и безоблачно+23°C43 %762 мм4.5 м/с2 %
    12:00Ясно и безоблачно+28°C28 %762 мм5.4 м/с2 %
    15:00Небольшая облачность+29°C25 %761 мм5.2 м/с2 %
    18:00Практически безоблачно+27°C25 %759 мм4.9 м/с2 %
    21:00Небольшая облачность+21°C34 %760 мм4.8 м/с2 %
Мы используем cookies
Соглашаюсь